Time,TemperatureF,DewpointF,PressureIn,WindDirection,WindDirectionDegrees,WindSpeedMPH,WindSpeedGustMPH,Humidity,HourlyPrecipIn,Conditions,Clouds,dailyrainin,SoftwareType,DateUTC
2013-04-19 00:02:00,73.0,73.0,29.88,NW,314,0.0,2.0,99,0.00,,,0.00,,2013-04-18 14:02:00,
2013-04-19 00:12:00,73.0,73.0,29.87,North,0,0.0,0.0,99,0.00,,,0.00,,2013-04-18 14:12:00,
2013-04-19 00:22:00,73.0,73.0,29.87,North,0,0.0,0.0,99,0.00,,,0.00,,2013-04-18 14:22:00,
2013-04-19 00:32:00,73.0,73.0,29.87,North,0,0.0,0.0,99,0.00,,,0.00,,2013-04-18 14:32:00,
2013-04-19 00:42:00,73.0,73.0,29.87,North,0,0.0,0.0,99,0.00,,,0.00,,2013-04-18 14:42:00,
2013-04-19 00:52:00,72.0,72.0,29.87,North,1,0.0,1.0,99,0.00,,,0.00,,2013-04-18 14:52:00,
2013-04-19 01:02:00,72.0,72.0,29.87,North,1,0.0,1.0,99,0.00,,,0.00,,2013-04-18 15:02:00,
2013-04-19 01:12:00,72.0,72.0,29.87,North,1,0.0,1.0,99,0.00,,,0.00,,2013-04-18 15:12:00,
2013-04-19 01:22:00,72.0,72.0,29.86,North,1,0.0,1.0,99,0.00,,,0.00,,2013-04-18 15:22:00,
2013-04-19 01:33:00,72.0,72.0,29.86,North,1,0.0,1.0,99,0.00,,,0.00,,2013-04-18 15:33:00,
2013-04-19 01:42:00,72.0,72.0,29.86,North,0,0.0,0.0,99,0.00,,,0.00,,2013-04-18 15:42:00,
2013-04-19 01:52:00,72.0,72.0,29.86,North,0,0.0,0.0,99,0.00,,,0.00,,2013-04-18 15:52:00,
2013-04-19 02:03:00,72.0,72.0,29.86,North,0,0.0,0.0,99,0.00,,,0.00,,2013-04-18 16:03:00,
2013-04-19 02:13:00,71.0,71.0,29.84,North,0,0.0,0.0,99,0.00,,,0.00,,2013-04-18 16:13:00,
2013-04-19 02:22:00,71.0,71.0,29.84,North,0,0.0,0.0,99,0.00,,,0.00,,2013-04-18 16:22:00,
2013-04-19 02:33:00,71.0,71.0,29.84,North,0,0.0,0.0,99,0.00,,,0.00,,2013-04-18 16:33:00,
2013-04-19 02:43:00,71.0,71.0,29.83,NNW,337,0.0,1.0,99,0.00,,,0.00,,2013-04-18 16:43:00,
2013-04-19 02:52:00,71.0,71.0,29.83,NNW,337,0.0,1.0,99,0.00,,,0.00,,2013-04-18 16:52:00,
2013-04-19 03:02:00,71.0,71.0,29.83,NNW,337,0.0,1.0,99,0.00,,,0.00,,2013-04-18 17:02:00,
2013-04-19 03:12:00,71.0,71.0,29.83,NNW,337,0.0,1.0,99,0.00,,,0.00,,2013-04-18 17:12:00,
2013-04-19 03:22:00,71.0,71.0,29.82,North,0,0.0,0.0,99,0.00,,,0.00,,2013-04-18 17:22:00,
2013-04-19 03:32:00,71.0,71.0,29.82,North,0,0.0,0.0,99,0.00,,,0.00,,2013-04-18 17:32:00,
2013-04-19 03:43:00,70.0,70.0,29.82,North,0,0.0,0.0,99,0.00,,,0.00,,2013-04-18 17:43:00,
2013-04-19 03:52:00,70.0,70.0,29.82,North,0,0.0,0.0,99,0.00,,,0.00,,2013-04-18 17:52:00,
2013-04-19 04:02:00,70.0,70.0,29.82,North,0,0.0,0.0,99,0.00,,,0.00,,2013-04-18 18:02:00,
2013-04-19 04:12:00,71.0,71.0,29.82,NW,314,0.0,2.0,99,0.00,,,0.00,,2013-04-18 18:12:00,
2013-04-19 04:22:00,71.0,71.0,29.82,NW,314,0.0,2.0,99,0.00,,,0.00,,2013-04-18 18:22:00,
2013-04-19 04:33:00,71.0,71.0,29.82,NW,314,0.0,2.0,99,0.00,,,0.00,,2013-04-18 18:33:00,
2013-04-19 04:43:00,71.0,71.0,29.82,NW,314,0.0,2.0,99,0.00,,,0.00,,2013-04-18 18:43:00,
2013-04-19 04:52:00,71.0,71.0,29.82,NW,314,0.0,1.0,99,0.00,,,0.00,,2013-04-18 18:52:00,
2013-04-19 05:02:00,71.0,71.0,29.82,North,0,0.0,0.0,99,0.00,,,0.00,,2013-04-18 19:02:00,
2013-04-19 05:12:00,71.0,71.0,29.82,North,0,0.0,0.0,99,0.00,,,0.00,,2013-04-18 19:12:00,
2013-04-19 05:22:00,70.0,70.0,29.82,NW,314,0.0,1.0,99,0.00,,,0.00,,2013-04-18 19:22:00,
2013-04-19 05:32:00,70.0,70.0,29.83,NW,314,0.0,3.0,99,0.00,,,0.00,,2013-04-18 19:32:00,
2013-04-19 05:42:00,70.0,70.0,29.83,NW,314,0.0,3.0,99,0.00,,,0.00,,2013-04-18 19:42:00,
2013-04-19 05:52:00,70.0,70.0,29.83,North,1,0.0,1.0,99,0.00,,,0.00,,2013-04-18 19:52:00,
2013-04-19 06:02:00,70.0,70.0,29.83,North,1,0.0,1.0,99,0.00,,,0.00,,2013-04-18 20:02:00,
2013-04-19 06:11:00,70.0,70.0,29.83,North,1,0.0,1.0,99,0.00,,,0.00,,2013-04-18 20:11:00,
2013-04-19 06:21:00,70.0,70.0,29.83,NW,314,0.0,1.0,99,0.00,,,0.00,,2013-04-18 20:21:00,
2013-04-19 06:32:00,70.0,70.0,29.83,NW,314,0.0,1.0,99,0.00,,,0.00,,2013-04-18 20:32:00,
2013-04-19 06:42:00,69.0,69.0,29.84,North,0,0.0,0.0,99,0.00,,,0.00,,2013-04-18 20:42:00,
2013-04-19 06:52:00,69.0,69.0,29.84,North,0,0.0,0.0,99,0.00,,,0.00,,2013-04-18 20:52:00,
2013-04-19 07:02:00,69.0,69.0,29.84,North,0,0.0,0.0,99,0.00,,,0.00,,2013-04-18 21:02:00,
2013-04-19 07:12:00,69.0,69.0,29.84,North,0,0.0,0.0,99,0.00,,,0.00,,2013-04-18 21:12:00,
2013-04-19 07:21:00,70.0,70.0,29.84,North,0,0.0,0.0,99,0.00,,,0.00,,2013-04-18 21:21:00,
2013-04-19 07:32:00,70.0,70.0,29.84,North,0,0.0,0.0,99,0.00,,,0.00,,2013-04-18 21:32:00,
2013-04-19 07:43:00,71.0,71.0,29.85,North,0,0.0,0.0,99,0.00,,,0.00,,2013-04-18 21:43:00,
2013-04-19 07:53:00,71.0,71.0,29.85,North,0,0.0,0.0,99,0.00,,,0.00,,2013-04-18 21:53:00,
2013-04-19 08:02:00,78.0,78.0,29.85,NW,324,0.0,2.0,99,0.00,,,0.00,,2013-04-18 22:02:00,
2013-04-19 08:12:00,81.0,81.0,29.85,NW,322,0.0,2.0,99,0.00,,,0.00,,2013-04-18 22:12:00,
2013-04-19 08:22:00,81.0,81.0,29.85,NW,322,0.0,2.0,99,0.00,,,0.00,,2013-04-18 22:22:00,
2013-04-19 08:32:00,84.0,84.0,29.86,NNE,26,0.0,2.0,99,0.00,,,0.00,,2013-04-18 22:32:00,
2013-04-19 08:42:00,84.0,84.0,29.86,NNW,341,1.0,2.0,99,0.00,,,0.00,,2013-04-18 22:42:00,
2013-04-19 08:52:00,84.0,84.0,29.86,NNW,341,1.0,2.0,99,0.00,,,0.00,,2013-04-18 22:52:00,
2013-04-19 09:03:00,87.0,87.0,29.86,NNW,342,0.0,3.0,99,0.00,,,0.00,,2013-04-18 23:03:00,
2013-04-19 09:11:00,87.0,87.0,29.85,NNW,334,0.0,2.0,99,0.00,,,0.00,,2013-04-18 23:11:00,
2013-04-19 09:21:00,87.0,87.0,29.85,NNW,334,0.0,2.0,99,0.00,,,0.00,,2013-04-18 23:21:00,
2013-04-19 09:30:00,89.0,83.0,29.87,NW,312,0.0,2.0,83,0.00,,,0.00,,2013-04-18 23:30:00,
2013-04-19 09:32:00,89.0,84.0,29.87,NNW,333,1.0,7.0,84,0.00,,,0.00,,2013-04-18 23:32:00,
2013-04-19 09:42:00,89.0,83.0,29.87,NW,312,0.0,2.0,83,0.00,,,0.00,,2013-04-18 23:42:00,
2013-04-19 09:52:00,89.0,83.0,29.87,NW,312,0.0,2.0,83,0.00,,,0.00,,2013-04-18 23:52:00,
2013-04-19 10:01:00,89.0,83.0,29.87,NW,312,0.0,2.0,83,0.00,,,0.00,,2013-04-19 00:01:00,
2013-04-19 10:11:00,89.0,83.0,29.87,NW,312,0.0,2.0,83,0.00,,,0.00,,2013-04-19 00:11:00,
2013-04-19 10:21:00,89.0,83.0,29.87,NW,312,0.0,2.0,83,0.00,,,0.00,,2013-04-19 00:21:00,
2013-04-19 10:52:00,92.0,82.0,29.86,NW,325,0.0,3.0,73,0.00,,,0.00,,2013-04-19 00:52:00,
2013-04-19 11:01:00,93.0,83.0,29.86,NW,320,0.0,3.0,72,0.00,,,0.00,,2013-04-19 01:01:00,
2013-04-19 11:11:00,93.0,83.0,29.86,NW,320,0.0,3.0,72,0.00,,,0.00,,2013-04-19 01:11:00,
2013-04-19 11:21:00,93.0,81.0,29.84,SSW,206,1.0,4.0,69,0.00,,,0.00,,2013-04-19 01:21:00,
2013-04-19 11:31:00,93.0,81.0,29.84,SSW,206,1.0,4.0,69,0.00,,,0.00,,2013-04-19 01:31:00,
2013-04-19 11:42:00,93.0,81.0,29.84,SSW,206,1.0,4.0,69,0.00,,,0.00,,2013-04-19 01:42:00,
2013-04-19 11:52:00,92.0,80.0,29.84,South,176,3.0,9.0,69,0.00,,,0.00,,2013-04-19 01:52:00,
2013-04-19 12:01:00,92.0,80.0,29.84,South,176,3.0,9.0,69,0.00,,,0.00,,2013-04-19 02:01:00,
2013-04-19 12:11:00,92.0,80.0,29.84,South,176,3.0,9.0,69,0.00,,,0.00,,2013-04-19 02:11:00,
2013-04-19 12:21:00,92.0,80.0,29.84,South,176,3.0,9.0,69,0.00,,,0.00,,2013-04-19 02:21:00,
2013-04-19 12:31:00,94.0,82.0,29.81,South,183,1.0,4.0,68,0.00,,,0.00,,2013-04-19 02:31:00,
2013-04-19 12:42:00,94.0,82.0,29.81,South,183,1.0,4.0,68,0.00,,,0.00,,2013-04-19 02:42:00,
2013-04-19 12:52:00,94.0,80.0,29.81,South,178,2.0,8.0,65,0.00,,,0.00,,2013-04-19 02:52:00,
2013-04-19 13:01:00,94.0,82.0,29.81,South,175,2.0,8.0,68,0.00,,,0.00,,2013-04-19 03:01:00,
2013-04-19 13:11:00,94.0,82.0,29.81,South,175,2.0,8.0,68,0.00,,,0.00,,2013-04-19 03:11:00,
2013-04-19 13:21:00,93.0,82.0,29.80,SSE,162,2.0,8.0,70,0.00,,,0.00,,2013-04-19 03:21:00,
2013-04-19 13:32:00,93.0,82.0,29.80,SSE,162,2.0,8.0,70,0.00,,,0.00,,2013-04-19 03:32:00,
2013-04-19 13:43:00,93.0,82.0,29.80,SSE,162,2.0,8.0,70,0.00,,,0.00,,2013-04-19 03:43:00,
2013-04-19 13:53:00,93.0,83.0,29.79,SSE,163,0.0,8.0,72,0.00,,,0.00,,2013-04-19 03:53:00,
2013-04-19 14:03:00,93.0,83.0,29.79,SSE,163,0.0,8.0,72,0.00,,,0.00,,2013-04-19 04:03:00,
2013-04-19 14:12:00,93.0,83.0,29.79,SSE,163,0.0,8.0,72,0.00,,,0.00,,2013-04-19 04:12:00,
2013-04-19 14:23:00,95.0,83.0,29.78,South,181,2.0,8.0,68,0.00,,,0.00,,2013-04-19 04:23:00,
2013-04-19 14:32:00,95.0,83.0,29.78,South,181,2.0,8.0,68,0.00,,,0.00,,2013-04-19 04:32:00,
2013-04-19 14:43:00,93.0,81.0,29.77,SSW,195,3.0,8.0,68,0.00,,,0.00,,2013-04-19 04:43:00,
2013-04-19 14:52:00,93.0,81.0,29.77,SSW,195,3.0,8.0,68,0.00,,,0.00,,2013-04-19 04:52:00,
2013-04-19 15:02:00,93.0,81.0,29.77,SSW,195,3.0,8.0,68,0.00,,,0.00,,2013-04-19 05:02:00,
2013-04-19 15:11:00,93.0,81.0,29.77,SSW,195,3.0,8.0,68,0.00,,,0.00,,2013-04-19 05:11:00,
2013-04-19 15:22:00,93.0,81.0,29.76,South,182,2.0,6.0,69,0.00,,,0.00,,2013-04-19 05:22:00,
2013-04-19 15:31:00,92.0,82.0,29.76,SSE,153,2.0,7.0,74,0.00,,,0.00,,2013-04-19 05:31:00,
2013-04-19 15:42:00,92.0,82.0,29.76,SSE,153,2.0,7.0,74,0.00,,,0.00,,2013-04-19 05:42:00,
2013-04-19 15:52:00,93.0,82.0,29.76,SSE,166,1.0,8.0,71,0.00,,,0.00,,2013-04-19 05:52:00,
2013-04-19 16:01:00,93.0,82.0,29.76,SSE,166,1.0,8.0,71,0.00,,,0.00,,2013-04-19 06:01:00,
2013-04-19 16:11:00,93.0,82.0,29.76,SSE,166,1.0,8.0,71,0.00,,,0.00,,2013-04-19 06:11:00,
2013-04-19 16:22:00,93.0,82.0,29.76,SSE,166,1.0,8.0,71,0.00,,,0.00,,2013-04-19 06:22:00,
2013-04-19 16:31:00,91.0,82.0,29.77,South,169,1.0,8.0,76,0.00,,,0.00,,2013-04-19 06:31:00,
2013-04-19 16:42:00,91.0,82.0,29.77,South,169,1.0,8.0,76,0.00,,,0.00,,2013-04-19 06:42:00,
2013-04-19 16:53:00,91.0,83.0,29.77,SE,146,2.0,6.0,77,0.00,,,0.00,,2013-04-19 06:53:00,
2013-04-19 17:01:00,92.0,82.0,29.77,South,170,0.0,4.0,73,0.00,,,0.00,,2013-04-19 07:01:00,
2013-04-19 17:12:00,92.0,82.0,29.77,South,170,0.0,4.0,73,0.00,,,0.00,,2013-04-19 07:12:00,
2013-04-19 17:21:00,87.0,82.0,29.78,SSE,161,2.0,8.0,84,0.00,,,0.00,,2013-04-19 07:21:00,
2013-04-19 17:31:00,84.0,83.0,29.78,South,169,2.0,7.0,96,0.00,,,0.00,,2013-04-19 07:31:00,
2013-04-19 17:41:00,84.0,83.0,29.78,South,169,2.0,7.0,96,0.00,,,0.00,,2013-04-19 07:41:00,
2013-04-19 17:52:00,83.0,83.0,29.78,South,176,0.0,6.0,99,0.00,,,0.00,,2013-04-19 07:52:00,
2013-04-19 18:02:00,81.0,81.0,29.78,SSE,147,0.0,7.0,99,0.00,,,0.00,,2013-04-19 08:02:00,
2013-04-19 18:10:00,80.0,80.0,29.79,WSW,238,0.0,4.0,99,0.00,,,0.00,,2013-04-19 08:10:00,
2013-04-19 18:12:00,80.0,80.0,29.78,SW,230,2.0,5.0,99,0.00,,,0.00,,2013-04-19 08:12:00,
2013-04-19 18:21:00,80.0,80.0,29.78,SW,230,2.0,5.0,99,0.00,,,0.00,,2013-04-19 08:21:00,
2013-04-19 18:32:00,80.0,80.0,29.79,WSW,238,0.0,4.0,99,0.00,,,0.00,,2013-04-19 08:32:00,
2013-04-19 18:41:00,80.0,80.0,29.79,WSW,238,0.0,4.0,99,0.00,,,0.00,,2013-04-19 08:41:00,
2013-04-19 18:52:00,80.0,80.0,29.79,WSW,238,0.0,4.0,99,0.00,,,0.00,,2013-04-19 08:52:00,
2013-04-19 19:01:00,80.0,80.0,29.79,WSW,238,0.0,4.0,99,0.00,,,0.00,,2013-04-19 09:01:00,
2013-04-19 19:33:00,78.0,78.0,29.80,North,0,0.0,0.0,99,0.00,,,0.00,,2013-04-19 09:33:00,
2013-04-19 19:43:00,78.0,78.0,29.80,North,0,0.0,0.0,99,0.00,,,0.00,,2013-04-19 09:43:00,
2013-04-19 19:52:00,77.0,77.0,29.81,North,0,0.0,0.0,99,0.00,,,0.00,,2013-04-19 09:52:00,
2013-04-19 20:02:00,77.0,77.0,29.81,North,0,0.0,0.0,99,0.00,,,0.00,,2013-04-19 10:02:00,
2013-04-19 20:13:00,76.0,76.0,29.83,North,0,0.0,0.0,99,0.00,,,0.00,,2013-04-19 10:13:00,
2013-04-19 20:23:00,76.0,76.0,29.83,North,0,0.0,0.0,99,0.00,,,0.00,,2013-04-19 10:23:00,
2013-04-19 20:33:00,76.0,76.0,29.83,North,0,0.0,0.0,99,0.00,,,0.00,,2013-04-19 10:33:00,
2013-04-19 20:40:00,75.0,75.0,29.84,North,0,0.0,0.0,99,0.00,,,0.00,,2013-04-19 10:40:00,
2013-04-19 20:42:00,75.0,75.0,29.84,North,0,0.0,0.0,99,0.00,,,0.00,,2013-04-19 10:42:00,
2013-04-19 20:52:00,75.0,75.0,29.84,North,0,0.0,0.0,99,0.00,,,0.00,,2013-04-19 10:52:00,
2013-04-19 21:02:00,75.0,75.0,29.84,North,0,0.0,0.0,99,0.00,,,0.00,,2013-04-19 11:02:00,
2013-04-19 21:11:00,75.0,75.0,29.84,North,0,0.0,0.0,99,0.00,,,0.00,,2013-04-19 11:11:00,
2013-04-19 21:21:00,75.0,75.0,29.84,North,0,0.0,0.0,99,0.00,,,0.00,,2013-04-19 11:21:00,
2013-04-19 21:32:00,75.0,75.0,29.84,North,0,0.0,0.0,99,0.00,,,0.00,,2013-04-19 11:32:00,
2013-04-19 21:52:00,74.0,74.0,29.85,North,0,0.0,0.0,99,0.00,,,0.00,,2013-04-19 11:52:00,
2013-04-19 22:02:00,73.0,73.0,29.85,North,0,0.0,0.0,99,0.00,,,0.00,,2013-04-19 12:02:00,
2013-04-19 22:12:00,73.0,73.0,29.85,North,0,0.0,0.0,99,0.00,,,0.00,,2013-04-19 12:12:00,
2013-04-19 22:22:00,73.0,73.0,29.85,North,0,0.0,0.0,99,0.00,,,0.00,,2013-04-19 12:22:00,
2013-04-19 22:32:00,73.0,73.0,29.85,North,0,0.0,0.0,99,0.00,,,0.00,,2013-04-19 12:32:00,
2013-04-19 22:42:00,73.0,73.0,29.85,North,0,0.0,0.0,99,0.00,,,0.00,,2013-04-19 12:42:00,
2013-04-19 22:52:00,73.0,73.0,29.85,North,0,0.0,0.0,99,0.00,,,0.00,,2013-04-19 12:52:00,
2013-04-19 23:01:00,73.0,73.0,29.85,North,0,0.0,0.0,99,0.00,,,0.00,,2013-04-19 13:01:00,
2013-04-19 23:11:00,73.0,73.0,29.85,North,0,0.0,0.0,99,0.00,,,0.00,,2013-04-19 13:11:00,
2013-04-19 23:21:00,73.0,73.0,29.84,North,0,0.0,0.0,99,0.00,,,0.00,,2013-04-19 13:21:00,
2013-04-19 23:32:00,73.0,73.0,29.84,North,0,0.0,0.0,99,0.00,,,0.00,,2013-04-19 13:32:00,
2013-04-19 23:41:00,73.0,73.0,29.84,North,0,0.0,0.0,99,0.00,,,0.00,,2013-04-19 13:41:00,
2013-04-19 23:52:00,72.0,72.0,29.84,North,0,0.0,0.0,99,0.00,,,0.00,,2013-04-19 13:52:00,